Time;durP1;ratioP1;P1;durP2;ratioP2;P2;SDS_P1;SDS_P2;PMS_P1;PMS_P2;Temp;Humidity;BMP_temperature;BMP_pressure;BME280_temperature;BME280_humidity;BME280_pressure;Samples;Min_cycle;Max_cycle;Signal;HPM_P1;HPM_P2
2021/09/02 00:02:06;;;;;;;21.67;10.00;;;;;;;;;;5041039;28;20468;-82
2021/09/02 00:04:32;;;;;;;18.73;10.05;;;;;;;;;;5041093;28;20029;-83
2021/09/02 00:06:59;;;;;;;18.63;9.23;;;;;;;;;;5050911;28;20029;-82
2021/09/02 00:09:25;;;;;;;17.17;9.27;;;;;;;;;;5050100;28;20069;-82
2021/09/02 00:11:51;;;;;;;20.17;9.45;;;;;;;;;;5039679;28;20036;-82
2021/09/02 00:14:16;;;;;;;17.33;10.13;;;;;;;;;;5041171;28;20025;-83
2021/09/02 00:16:42;;;;;;;20.77;10.60;;;;;;;;;;5047687;28;20033;-82
2021/09/02 00:19:08;;;;;;;18.33;9.30;;;;;;;;;;5039433;28;20033;-83
2021/09/02 00:21:34;;;;;;;19.85;10.02;;;;;;;;;;5040760;28;20045;-83
2021/09/02 00:23:59;;;;;;;18.92;10.02;;;;;;;;;;5039868;28;20106;-82
2021/09/02 00:26:24;;;;;;;19.13;9.93;;;;;;;;;;5038683;28;20021;-82
2021/09/02 00:28:50;;;;;;;24.75;9.70;;;;;;;;;;5020964;28;20025;-82
2021/09/02 00:31:15;;;;;;;20.50;10.35;;;;;;;;;;5021868;28;20075;-83
2021/09/02 00:33:40;;;;;;;18.98;9.25;;;;;;;;;;5039941;28;20462;-83
2021/09/02 00:36:06;;;;;;;18.60;9.27;;;;;;;;;;5022021;28;20414;-83
2021/09/02 00:38:35;;;;;;;20.10;9.73;;;;;;;;;;5039394;28;20025;-82
2021/09/02 00:41:02;;;;;;;21.48;10.18;;;;;;;;;;5039537;28;20032;-83
2021/09/02 00:43:31;;;;;;;20.08;10.02;;;;;;;;;;5039405;28;20156;-83
2021/09/02 00:45:57;;;;;;;21.75;11.25;;;;;;;;;;5039667;28;20061;-83
2021/09/02 00:48:22;;;;;;;21.35;10.95;;;;;;;;;;5039437;28;20030;-83
2021/09/02 00:50:48;;;;;;;19.55;11.55;;;;;;;;;;5021670;28;20025;-83
2021/09/02 00:53:14;;;;;;;22.15;10.52;;;;;;;;;;5038933;28;20025;-83
2021/09/02 00:55:41;;;;;;;23.13;12.00;;;;;;;;;;5038903;28;20083;-83
2021/09/02 00:58:06;;;;;;;28.60;11.77;;;;;;;;;;5039686;28;20120;-83
2021/09/02 01:00:31;;;;;;;23.98;10.77;;;;;;;;;;5020674;28;20064;-83
2021/09/02 01:02:57;;;;;;;35.13;12.95;;;;;;;;;;5039423;28;20021;-83
2021/09/02 01:05:22;;;;;;;24.45;11.10;;;;;;;;;;5021764;28;20029;-83
2021/09/02 01:07:48;;;;;;;23.13;10.50;;;;;;;;;;5021462;28;20029;-82
2021/09/02 01:10:14;;;;;;;23.50;11.23;;;;;;;;;;5038977;28;20028;-82
2021/09/02 01:12:44;;;;;;;23.42;10.90;;;;;;;;;;5039133;28;20095;-82
2021/09/02 01:15:15;;;;;;;17.77;10.27;;;;;;;;;;5021228;28;20087;-82
2021/09/02 01:17:42;;;;;;;25.55;12.23;;;;;;;;;;5020841;28;20018;-83
2021/09/02 01:20:09;;;;;;;17.83;8.65;;;;;;;;;;5020489;28;20022;-82
2021/09/02 01:22:35;;;;;;;21.52;10.07;;;;;;;;;;5022639;28;20025;-83
2021/09/02 01:25:05;;;;;;;21.58;9.82;;;;;;;;;;5043279;28;20083;-82
2021/09/02 01:27:30;;;;;;;20.38;10.35;;;;;;;;;;5021313;28;20079;-83
2021/09/02 01:29:57;;;;;;;24.75;10.70;;;;;;;;;;5039522;28;20021;-83
2021/09/02 01:32:24;;;;;;;20.52;10.30;;;;;;;;;;5039367;28;20022;-84
2021/09/02 01:34:53;;;;;;;22.73;10.05;;;;;;;;;;5038588;28;20049;-83
2021/09/02 01:37:18;;;;;;;32.03;10.80;;;;;;;;;;5020619;28;20029;-82
2021/09/02 01:39:43;;;;;;;30.38;12.18;;;;;;;;;;5020551;28;20025;-82
2021/09/02 01:42:12;;;;;;;27.00;11.98;;;;;;;;;;5038174;28;20029;-81
2021/09/02 01:44:38;;;;;;;38.63;12.88;;;;;;;;;;5020106;28;20025;-82
2021/09/02 01:47:11;;;;;;;48.55;16.35;;;;;;;;;;5037706;28;20037;-82
2021/09/02 01:49:36;;;;;;;39.83;15.82;;;;;;;;;;5038673;28;20026;-82
2021/09/02 01:52:02;;;;;;;47.28;17.05;;;;;;;;;;5038872;28;20036;-83
2021/09/02 01:54:27;;;;;;;41.13;16.50;;;;;;;;;;5038793;28;20079;-83
2021/09/02 01:56:52;;;;;;;46.13;16.40;;;;;;;;;;5039285;28;20116;-83
2021/09/02 01:59:17;;;;;;;45.92;15.68;;;;;;;;;;5021212;28;20400;-82
2021/09/02 02:01:43;;;;;;;42.53;16.58;;;;;;;;;;5039111;28;20030;-82
2021/09/02 02:04:08;;;;;;;34.38;15.48;;;;;;;;;;5038471;28;20030;-82
2021/09/02 02:06:33;;;;;;;36.60;15.13;;;;;;;;;;5038935;28;20028;-83
2021/09/02 02:08:59;;;;;;;38.72;15.15;;;;;;;;;;5021041;28;20072;-83
2021/09/02 02:11:24;;;;;;;41.10;14.52;;;;;;;;;;5020686;28;20014;-83
2021/09/02 02:13:49;;;;;;;29.35;13.38;;;;;;;;;;5038656;28;20044;-83
2021/09/02 02:16:14;;;;;;;33.58;13.75;;;;;;;;;;5038085;28;20166;-82
2021/09/02 02:18:40;;;;;;;32.28;13.60;;;;;;;;;;5020228;28;20021;-82
2021/09/02 02:21:05;;;;;;;32.83;13.80;;;;;;;;;;5037853;28;20029;-82
2021/09/02 02:23:30;;;;;;;36.78;14.43;;;;;;;;;;5019442;28;20026;-82
2021/09/02 02:25:55;;;;;;;37.20;13.93;;;;;;;;;;5019903;28;20029;-82
2021/09/02 02:28:22;;;;;;;38.65;14.90;;;;;;;;;;5020944;28;20055;-83
2021/09/02 02:30:47;;;;;;;57.08;16.08;;;;;;;;;;5044178;28;20053;-84
2021/09/02 02:33:12;;;;;;;68.57;15.98;;;;;;;;;;5037626;28;20093;-81
2021/09/02 02:35:38;;;;;;;128.60;18.77;;;;;;;;;;5038400;28;20365;-83
2021/09/02 02:38:03;;;;;;;129.10;19.42;;;;;;;;;;5038261;28;20028;-83
2021/09/02 02:40:28;;;;;;;89.97;18.63;;;;;;;;;;5038376;28;20212;-82
2021/09/02 02:42:54;;;;;;;89.85;19.90;;;;;;;;;;5020957;28;20115;-84
2021/09/02 02:45:19;;;;;;;55.58;17.05;;;;;;;;;;5037587;28;20021;-82
2021/09/02 02:47:44;;;;;;;44.58;16.30;;;;;;;;;;5037453;28;20025;-82
2021/09/02 02:50:10;;;;;;;38.25;18.33;;;;;;;;;;5037749;28;20014;-83
2021/09/02 02:52:35;;;;;;;51.25;16.90;;;;;;;;;;5037364;28;20029;-82
2021/09/02 02:55:01;;;;;;;61.63;16.60;;;;;;;;;;5038152;28;20040;-84
2021/09/02 02:57:26;;;;;;;75.10;17.13;;;;;;;;;;5039075;28;20031;-83
2021/09/02 02:59:51;;;;;;;66.40;17.58;;;;;;;;;;5038197;28;20032;-84
2021/09/02 03:02:17;;;;;;;91.60;19.15;;;;;;;;;;5037706;28;20025;-83
2021/09/02 03:04:42;;;;;;;92.18;18.48;;;;;;;;;;5037496;28;20079;-83
2021/09/02 03:07:08;;;;;;;70.10;18.08;;;;;;;;;;5037526;28;20028;-83
2021/09/02 03:09:33;;;;;;;86.43;23.48;;;;;;;;;;5037654;28;20064;-84
2021/09/02 03:11:58;;;;;;;83.70;18.17;;;;;;;;;;5036904;28;20029;-83
2021/09/02 03:14:24;;;;;;;66.55;19.45;;;;;;;;;;5019255;28;20028;-83
2021/09/02 03:16:49;;;;;;;80.95;19.35;;;;;;;;;;5019464;28;20511;-83
2021/09/02 03:19:14;;;;;;;40.25;16.33;;;;;;;;;;5036971;28;20021;-81
2021/09/02 03:21:40;;;;;;;43.92;15.52;;;;;;;;;;5019309;28;20021;-82
2021/09/02 03:24:05;;;;;;;45.53;14.07;;;;;;;;;;5040152;28;20075;-82
2021/09/02 03:26:31;;;;;;;46.75;13.95;;;;;;;;;;5041789;28;20072;-82
2021/09/02 03:28:56;;;;;;;33.20;13.32;;;;;;;;;;5023185;28;20033;-82
2021/09/02 03:31:21;;;;;;;35.00;13.73;;;;;;;;;;5041908;28;20554;-83
2021/09/02 03:33:47;;;;;;;33.65;13.60;;;;;;;;;;5041496;28;20025;-83
2021/09/02 03:36:12;;;;;;;36.30;14.30;;;;;;;;;;5042222;28;20032;-83
2021/09/02 03:38:37;;;;;;;29.13;13.38;;;;;;;;;;5041568;28;20494;-83
2021/09/02 03:41:03;;;;;;;25.92;12.93;;;;;;;;;;5024172;28;20511;-83
2021/09/02 03:43:28;;;;;;;27.55;12.43;;;;;;;;;;5044239;28;20036;-84
2021/09/02 03:45:53;;;;;;;21.63;11.80;;;;;;;;;;5043867;28;20056;-83
2021/09/02 03:48:19;;;;;;;29.40;13.15;;;;;;;;;;5041246;28;20103;-83
2021/09/02 03:50:44;;;;;;;23.38;12.38;;;;;;;;;;5041441;28;20053;-83
2021/09/02 03:53:09;;;;;;;25.75;11.93;;;;;;;;;;5041321;28;20451;-83
2021/09/02 03:55:35;;;;;;;27.17;11.95;;;;;;;;;;5040971;28;20025;-82
2021/09/02 03:58:00;;;;;;;36.47;13.27;;;;;;;;;;5040927;28;20068;-83
2021/09/02 04:00:26;;;;;;;30.23;12.35;;;;;;;;;;5041168;28;20035;-84
2021/09/02 04:02:51;;;;;;;30.63;12.30;;;;;;;;;;5041480;28;20049;-83
2021/09/02 04:05:16;;;;;;;28.75;12.38;;;;;;;;;;5023304;28;20032;-84
2021/09/02 04:07:42;;;;;;;30.92;10.95;;;;;;;;;;5040915;28;20032;-83
2021/09/02 04:10:07;;;;;;;26.90;11.95;;;;;;;;;;5023244;28;20065;-82
2021/09/02 04:12:33;;;;;;;28.00;11.23;;;;;;;;;;5041827;28;20036;-83
2021/09/02 04:14:58;;;;;;;32.30;12.18;;;;;;;;;;5023715;28;20025;-84
2021/09/02 04:17:24;;;;;;;25.90;11.55;;;;;;;;;;5041967;28;20017;-82
2021/09/02 04:19:52;;;;;;;29.88;12.63;;;;;;;;;;5041428;28;20029;-83
2021/09/02 04:22:17;;;;;;;34.75;10.88;;;;;;;;;;5024250;28;20032;-84
2021/09/02 04:24:43;;;;;;;40.75;12.57;;;;;;;;;;5042862;28;20025;-84
2021/09/02 04:27:11;;;;;;;28.30;11.60;;;;;;;;;;5043257;28;20021;-84
2021/09/02 04:29:36;;;;;;;26.73;11.30;;;;;;;;;;5044131;28;20024;-82
2021/09/02 04:32:02;;;;;;;26.80;11.98;;;;;;;;;;5043894;28;20025;-84
2021/09/02 04:34:27;;;;;;;31.40;12.07;;;;;;;;;;5043699;28;20028;-84
2021/09/02 04:36:53;;;;;;;29.08;11.57;;;;;;;;;;5044277;28;20030;-84
2021/09/02 04:39:18;;;;;;;26.23;12.60;;;;;;;;;;5031511;28;20212;-85
2021/09/02 04:41:43;;;;;;;33.38;12.88;;;;;;;;;;5026861;28;20029;-86
2021/09/02 04:44:09;;;;;;;38.17;13.32;;;;;;;;;;5050417;28;20108;-84
2021/09/02 04:46:34;;;;;;;43.53;13.15;;;;;;;;;;5044285;28;20028;-85
2021/09/02 04:48:59;;;;;;;29.90;12.40;;;;;;;;;;5047937;28;20017;-84
2021/09/02 04:51:25;;;;;;;43.60;12.98;;;;;;;;;;5046448;28;20028;-85
2021/09/02 04:53:50;;;;;;;53.63;13.48;;;;;;;;;;5042948;28;20039;-84
2021/09/02 04:56:15;;;;;;;43.10;13.65;;;;;;;;;;5043222;28;20025;-84
2021/09/02 04:58:41;;;;;;;30.27;13.23;;;;;;;;;;5025538;28;20025;-85
2021/09/02 05:01:06;;;;;;;36.85;12.38;;;;;;;;;;5034180;28;20006;-84
2021/09/02 05:03:31;;;;;;;33.70;14.00;;;;;;;;;;5050941;28;20036;-84
2021/09/02 05:05:57;;;;;;;27.63;12.55;;;;;;;;;;5042424;28;20396;-83
2021/09/02 05:08:23;;;;;;;22.35;11.70;;;;;;;;;;5026288;28;20061;-84
2021/09/02 05:10:49;;;;;;;28.48;13.35;;;;;;;;;;5041572;28;20031;-84
2021/09/02 05:13:15;;;;;;;26.48;13.55;;;;;;;;;;5024244;28;20033;-83
2021/09/02 05:15:40;;;;;;;29.23;13.02;;;;;;;;;;5041522;28;20034;-83
2021/09/02 05:18:05;;;;;;;32.92;12.98;;;;;;;;;;5041916;28;20433;-82
2021/09/02 05:20:31;;;;;;;31.20;13.27;;;;;;;;;;5043644;28;20029;-84
2021/09/02 05:22:56;;;;;;;53.75;14.23;;;;;;;;;;5025507;28;20503;-84
2021/09/02 05:25:22;;;;;;;37.20;13.45;;;;;;;;;;5041679;28;20079;-84
2021/09/02 05:27:47;;;;;;;42.65;15.90;;;;;;;;;;5042102;28;20477;-85
2021/09/02 05:30:14;;;;;;;32.47;15.00;;;;;;;;;;5042097;28;20052;-85
2021/09/02 05:32:40;;;;;;;38.55;15.32;;;;;;;;;;5043106;28;20047;-85
2021/09/02 05:35:07;;;;;;;38.35;14.23;;;;;;;;;;5041653;28;20032;-85
2021/09/02 05:37:32;;;;;;;33.65;13.50;;;;;;;;;;5042899;28;20029;-84
2021/09/02 05:39:57;;;;;;;29.70;13.55;;;;;;;;;;5042573;28;20033;-84
2021/09/02 05:42:23;;;;;;;26.48;12.82;;;;;;;;;;5025949;28;20053;-84
2021/09/02 05:44:49;;;;;;;28.45;13.32;;;;;;;;;;5043680;28;20485;-85
2021/09/02 05:47:14;;;;;;;27.45;13.90;;;;;;;;;;5043398;28;20097;-84
2021/09/02 05:49:39;;;;;;;28.58;15.60;;;;;;;;;;5040671;28;20018;-84
2021/09/02 05:52:05;;;;;;;29.00;15.88;;;;;;;;;;5039778;28;20085;-84
2021/09/02 05:54:31;;;;;;;26.65;13.82;;;;;;;;;;5020932;28;20400;-84
2021/09/02 05:56:56;;;;;;;31.58;14.95;;;;;;;;;;5040053;28;20499;-84
2021/09/02 05:59:21;;;;;;;28.98;14.48;;;;;;;;;;5043279;28;20509;-84
2021/09/02 06:01:47;;;;;;;28.02;13.35;;;;;;;;;;5045814;28;20484;-84
2021/09/02 06:04:13;;;;;;;30.48;14.25;;;;;;;;;;5025812;28;20025;-84
2021/09/02 06:06:38;;;;;;;27.27;13.68;;;;;;;;;;5023558;28;20550;-84
2021/09/02 06:09:03;;;;;;;31.15;13.00;;;;;;;;;;5023181;28;20431;-84
2021/09/02 06:11:29;;;;;;;27.20;13.65;;;;;;;;;;5040013;28;20079;-83
2021/09/02 06:13:54;;;;;;;30.42;13.05;;;;;;;;;;5038243;28;20048;-84
2021/09/02 06:16:21;;;;;;;27.60;13.23;;;;;;;;;;5021747;28;20028;-83
2021/09/02 06:18:48;;;;;;;28.48;13.35;;;;;;;;;;5038260;28;20051;-84
2021/09/02 06:21:13;;;;;;;31.50;13.57;;;;;;;;;;5020890;28;20052;-84
2021/09/02 06:23:38;;;;;;;24.92;13.75;;;;;;;;;;5038395;28;20029;-83
2021/09/02 06:26:04;;;;;;;26.58;13.38;;;;;;;;;;5038288;28;20472;-84
2021/09/02 06:28:29;;;;;;;33.38;13.50;;;;;;;;;;5038277;28;20022;-83
2021/09/02 06:30:54;;;;;;;34.20;15.85;;;;;;;;;;5039973;28;20017;-84
2021/09/02 06:33:20;;;;;;;28.92;13.70;;;;;;;;;;5037762;28;20032;-83
2021/09/02 06:35:45;;;;;;;28.80;13.48;;;;;;;;;;5037776;28;20106;-83
2021/09/02 06:38:10;;;;;;;33.35;13.55;;;;;;;;;;5037410;28;20425;-83
2021/09/02 06:40:36;;;;;;;28.98;14.57;;;;;;;;;;5019802;28;20025;-84
2021/09/02 06:43:01;;;;;;;39.75;15.95;;;;;;;;;;5038361;28;20025;-84
2021/09/02 06:45:26;;;;;;;30.60;15.30;;;;;;;;;;5037495;28;20029;-84
2021/09/02 06:47:52;;;;;;;36.08;15.48;;;;;;;;;;5020528;28;20369;-83
2021/09/02 06:50:17;;;;;;;26.15;13.70;;;;;;;;;;5020658;28;20033;-84
2021/09/02 06:52:43;;;;;;;32.20;15.38;;;;;;;;;;5038049;28;20040;-84
2021/09/02 06:55:09;;;;;;;25.75;14.35;;;;;;;;;;5021126;28;20374;-84
2021/09/02 06:57:35;;;;;;;30.73;14.25;;;;;;;;;;5025700;28;20036;-84
2021/09/02 07:00:02;;;;;;;31.08;14.55;;;;;;;;;;5018568;28;20107;-84
2021/09/02 07:02:28;;;;;;;35.63;14.77;;;;;;;;;;5037457;28;20032;-83
2021/09/02 07:04:53;;;;;;;39.58;16.02;;;;;;;;;;5019940;28;20022;-84
2021/09/02 07:07:18;;;;;;;40.83;17.20;;;;;;;;;;5036822;28;20029;-84
2021/09/02 07:09:44;;;;;;;41.53;15.45;;;;;;;;;;5019267;28;20108;-84
2021/09/02 07:12:09;;;;;;;36.53;15.77;;;;;;;;;;5037476;28;20021;-84
2021/09/02 07:14:35;;;;;;;42.97;19.33;;;;;;;;;;5019077;28;20028;-83
2021/09/02 07:17:00;;;;;;;33.40;16.42;;;;;;;;;;5019597;28;20052;-83
2021/09/02 07:19:27;;;;;;;38.67;16.35;;;;;;;;;;5036865;28;20481;-84
2021/09/02 07:21:52;;;;;;;32.03;14.50;;;;;;;;;;5019275;28;20419;-83
2021/09/02 07:24:18;;;;;;;34.30;15.98;;;;;;;;;;5036449;28;20037;-84
2021/09/02 07:26:43;;;;;;;40.28;16.48;;;;;;;;;;5036795;28;20088;-83
2021/09/02 07:29:09;;;;;;;45.65;17.90;;;;;;;;;;5019242;28;20075;-84
2021/09/02 07:31:35;;;;;;;47.50;17.33;;;;;;;;;;5037242;28;20083;-84
2021/09/02 07:34:01;;;;;;;37.55;16.48;;;;;;;;;;5019268;28;20116;-83
2021/09/02 07:36:27;;;;;;;51.75;18.17;;;;;;;;;;5037026;28;20057;-83
2021/09/02 07:38:52;;;;;;;47.25;18.27;;;;;;;;;;5036386;28;20033;-83
2021/09/02 07:41:17;;;;;;;49.70;18.10;;;;;;;;;;5036230;28;20022;-83
2021/09/02 07:43:43;;;;;;;58.03;17.52;;;;;;;;;;5036568;28;20037;-83
2021/09/02 07:46:09;;;;;;;49.17;18.08;;;;;;;;;;5035993;28;20021;-83
2021/09/02 07:48:34;;;;;;;49.53;18.55;;;;;;;;;;5036646;28;20034;-83
2021/09/02 07:51:00;;;;;;;45.70;18.08;;;;;;;;;;5018853;28;20117;-83
2021/09/02 07:53:25;;;;;;;51.47;18.58;;;;;;;;;;5036758;28;20029;-84
2021/09/02 07:55:51;;;;;;;59.67;19.00;;;;;;;;;;5020495;28;20091;-84
2021/09/02 07:58:16;;;;;;;46.45;19.00;;;;;;;;;;5018963;28;20449;-83
2021/09/02 08:00:41;;;;;;;64.07;21.50;;;;;;;;;;5018628;28;20037;-83
2021/09/02 08:03:07;;;;;;;43.55;18.67;;;;;;;;;;5036823;28;20503;-83
2021/09/02 08:05:32;;;;;;;49.70;18.80;;;;;;;;;;5037542;28;20089;-83
2021/09/02 08:07:57;;;;;;;57.85;19.00;;;;;;;;;;5036978;28;20041;-83
2021/09/02 08:10:25;;;;;;;53.08;19.25;;;;;;;;;;5021853;28;20022;-83
2021/09/02 08:12:52;;;;;;;53.80;18.67;;;;;;;;;;5040414;28;20029;-83
2021/09/02 08:15:17;;;;;;;59.33;20.50;;;;;;;;;;5023486;28;20075;-84
2021/09/02 08:17:43;;;;;;;49.45;18.40;;;;;;;;;;5023463;28;20025;-83
2021/09/02 08:20:10;;;;;;;59.13;19.73;;;;;;;;;;5040686;28;20390;-83
2021/09/02 08:22:37;;;;;;;58.35;18.27;;;;;;;;;;5047503;28;20013;-84
2021/09/02 08:25:03;;;;;;;57.13;19.40;;;;;;;;;;5028786;28;20112;-84
2021/09/02 08:27:29;;;;;;;52.45;19.23;;;;;;;;;;5042074;28;20036;-83
2021/09/02 08:29:54;;;;;;;55.03;19.38;;;;;;;;;;5041742;28;20030;-84
2021/09/02 08:32:19;;;;;;;43.67;17.40;;;;;;;;;;5040901;28;20031;-84
2021/09/02 08:34:45;;;;;;;55.35;18.27;;;;;;;;;;5040670;28;20028;-83
2021/09/02 08:37:10;;;;;;;54.78;19.95;;;;;;;;;;5023042;28;20018;-84
2021/09/02 08:39:35;;;;;;;47.20;17.90;;;;;;;;;;5040351;28;20021;-83
2021/09/02 08:42:03;;;;;;;48.88;18.27;;;;;;;;;;5024443;28;20025;-83
2021/09/02 08:44:28;;;;;;;44.78;17.65;;;;;;;;;;5043974;28;20443;-84
2021/09/02 08:46:57;;;;;;;49.00;17.73;;;;;;;;;;5029692;28;20029;-83
2021/09/02 08:49:23;;;;;;;52.65;17.92;;;;;;;;;;5033495;28;20116;-84
2021/09/02 08:51:50;;;;;;;43.70;17.17;;;;;;;;;;5022114;28;20071;-84
2021/09/02 08:54:15;;;;;;;47.15;17.17;;;;;;;;;;5039381;28;20056;-84
2021/09/02 08:56:41;;;;;;;46.00;17.25;;;;;;;;;;5021314;28;20018;-85
2021/09/02 08:59:06;;;;;;;45.55;16.77;;;;;;;;;;5039391;28;20026;-84
2021/09/02 09:01:32;;;;;;;46.50;16.63;;;;;;;;;;5021056;28;20025;-84
2021/09/02 09:03:58;;;;;;;54.00;15.95;;;;;;;;;;5038805;28;20035;-83
2021/09/02 09:06:27;;;;;;;41.60;15.30;;;;;;;;;;5039737;28;20029;-84
2021/09/02 09:08:54;;;;;;;44.22;16.30;;;;;;;;;;5020721;28;20195;-84
2021/09/02 09:11:25;;;;;;;35.30;14.45;;;;;;;;;;5044701;28;20017;-84
2021/09/02 09:14:13;;;;;;;43.75;16.80;;;;;;;;;;5023744;28;20506;-84
2021/09/02 09:16:45;;;;;;;39.17;15.30;;;;;;;;;;5021715;28;20057;-84
2021/09/02 09:19:12;;;;;;;36.22;15.65;;;;;;;;;;5020586;28;20116;-83
2021/09/02 09:21:58;;;;;;;37.65;14.70;;;;;;;;;;5019556;28;20029;-84
2021/09/02 09:24:23;;;;;;;45.88;15.00;;;;;;;;;;5040191;28;20075;-84
2021/09/02 09:26:48;;;;;;;41.40;15.10;;;;;;;;;;5038707;28;20021;-84
2021/09/02 09:29:18;;;;;;;33.00;16.50;;;;;;;;;;5038598;28;20037;-84
2021/09/02 09:31:43;;;;;;;40.80;16.13;;;;;;;;;;5039963;28;20045;-84
2021/09/02 09:34:09;;;;;;;41.58;16.40;;;;;;;;;;5040395;28;20025;-84
2021/09/02 09:36:37;;;;;;;42.95;15.95;;;;;;;;;;5040474;28;20086;-85
2021/09/02 09:39:11;;;;;;;33.20;14.70;;;;;;;;;;5038915;28;20025;-85
2021/09/02 09:41:46;;;;;;;34.42;12.98;;;;;;;;;;5021158;28;20026;-84
2021/09/02 09:44:16;;;;;;;37.50;15.30;;;;;;;;;;5038984;28;20100;-85
2021/09/02 09:46:41;;;;;;;36.38;14.75;;;;;;;;;;5039048;28;20404;-84
2021/09/02 09:49:07;;;;;;;32.53;12.90;;;;;;;;;;5038867;28;20029;-84
2021/09/02 09:51:32;;;;;;;28.80;11.88;;;;;;;;;;5040085;28;20068;-84
2021/09/02 09:53:57;;;;;;;26.75;11.73;;;;;;;;;;5044527;28;20029;-84
2021/09/02 09:56:25;;;;;;;31.40;12.73;;;;;;;;;;5043231;28;20044;-82
2021/09/02 09:58:53;;;;;;;37.50;13.95;;;;;;;;;;5041767;28;20041;-84
2021/09/02 10:01:19;;;;;;;34.20;13.38;;;;;;;;;;5022786;28;20447;-84
2021/09/02 10:03:51;;;;;;;38.13;15.23;;;;;;;;;;5039403;28;20527;-83
2021/09/02 10:06:18;;;;;;;35.05;14.82;;;;;;;;;;5039324;28;20033;-83
2021/09/02 10:08:45;;;;;;;31.25;13.88;;;;;;;;;;5041011;28;20567;-84
2021/09/02 10:11:14;;;;;;;35.08;13.90;;;;;;;;;;5044746;28;20018;-84
2021/09/02 10:13:42;;;;;;;35.95;12.57;;;;;;;;;;5046809;28;20515;-84
2021/09/02 10:16:07;;;;;;;37.92;14.50;;;;;;;;;;5045395;28;20140;-85
2021/09/02 10:18:41;;;;;;;41.63;13.60;;;;;;;;;;5049752;28;20025;-84
2021/09/02 10:21:07;;;;;;;39.75;14.98;;;;;;;;;;5046837;28;20151;-84
2021/09/02 10:23:33;;;;;;;36.63;14.88;;;;;;;;;;5046338;28;20025;-84
2021/09/02 10:26:01;;;;;;;35.88;15.70;;;;;;;;;;5045387;28;20029;-84
2021/09/02 10:28:32;;;;;;;41.85;15.52;;;;;;;;;;5044516;28;20037;-85
2021/09/02 10:31:00;;;;;;;36.92;14.95;;;;;;;;;;5045626;28;20028;-83
2021/09/02 10:33:38;;;;;;;43.15;15.13;;;;;;;;;;5043326;28;20345;-84
2021/09/02 10:36:26;;;;;;;28.67;14.13;;;;;;;;;;5044534;28;20075;-83
2021/09/02 10:38:56;;;;;;;34.35;14.65;;;;;;;;;;5044792;28;20025;-84
2021/09/02 10:41:47;;;;;;;30.30;13.52;;;;;;;;;;5042435;28;20028;-85
2021/09/02 10:44:14;;;;;;;34.75;13.18;;;;;;;;;;5049527;28;20097;-85
2021/09/02 10:46:49;;;;;;;31.95;11.68;;;;;;;;;;5047885;28;20032;-84
2021/09/02 10:49:29;;;;;;;30.35;12.32;;;;;;;;;;5027413;28;20021;-84
2021/09/02 10:52:00;;;;;;;31.30;12.13;;;;;;;;;;5043725;28;20021;-85
2021/09/02 10:54:38;;;;;;;29.58;11.93;;;;;;;;;;5043412;28;20025;-85
2021/09/02 10:57:11;;;;;;;30.83;12.43;;;;;;;;;;5048529;28;20085;-85
2021/09/02 10:59:57;;;;;;;40.85;12.98;;;;;;;;;;5043812;28;20025;-85
2021/09/02 11:02:22;;;;;;;26.52;11.60;;;;;;;;;;5025012;28;20040;-84
2021/09/02 11:04:59;;;;;;;32.30;13.27;;;;;;;;;;5025908;28;20030;-85
2021/09/02 11:07:37;;;;;;;32.97;11.65;;;;;;;;;;5044024;28;20254;-85
2021/09/02 11:10:14;;;;;;;30.60;13.27;;;;;;;;;;5043055;28;20014;-84
2021/09/02 11:12:40;;;;;;;28.55;12.48;;;;;;;;;;5025928;28;20025;-84
2021/09/02 11:15:06;;;;;;;26.90;11.98;;;;;;;;;;5042131;28;20078;-84
2021/09/02 11:17:31;;;;;;;29.63;11.38;;;;;;;;;;5042345;28;20025;-84
2021/09/02 11:19:57;;;;;;;30.67;12.70;;;;;;;;;;5043606;28;20031;-85
2021/09/02 11:22:22;;;;;;;21.38;11.00;;;;;;;;;;5042846;28;20100;-83
2021/09/02 11:24:50;;;;;;;24.58;11.85;;;;;;;;;;5025932;28;20471;-84
2021/09/02 11:27:34;;;;;;;31.63;12.48;;;;;;;;;;5049153;28;20067;-83
2021/09/02 11:30:18;;;;;;;23.77;11.85;;;;;;;;;;5042750;28;20505;-83
2021/09/02 11:32:51;;;;;;;27.98;11.88;;;;;;;;;;5043454;28;20036;-84
2021/09/02 11:35:16;;;;;;;30.55;12.30;;;;;;;;;;5042759;28;20125;-85
2021/09/02 11:37:43;;;;;;;32.40;11.50;;;;;;;;;;5042845;28;20021;-85
2021/09/02 11:40:22;;;;;;;29.70;11.48;;;;;;;;;;5041647;28;20025;-85
2021/09/02 11:42:47;;;;;;;24.42;10.68;;;;;;;;;;5042916;28;20029;-85
2021/09/02 11:45:15;;;;;;;27.42;11.48;;;;;;;;;;5044508;28;20084;-85
2021/09/02 11:47:40;;;;;;;35.45;11.15;;;;;;;;;;5045247;28;20029;-85
2021/09/02 11:50:06;;;;;;;31.45;11.15;;;;;;;;;;5046598;28;20034;-85
2021/09/02 11:52:43;;;;;;;25.73;10.35;;;;;;;;;;5028540;28;20025;-85
2021/09/02 11:55:31;;;;;;;27.13;11.52;;;;;;;;;;5046275;28;20493;-84
2021/09/02 11:58:06;;;;;;;30.98;12.50;;;;;;;;;;5046292;28;20481;-85
2021/09/02 12:00:33;;;;;;;24.23;11.15;;;;;;;;;;5028219;28;20098;-85
2021/09/02 12:03:01;;;;;;;26.67;11.30;;;;;;;;;;5027758;28;20088;-84
2021/09/02 12:05:38;;;;;;;25.63;10.70;;;;;;;;;;5046917;28;20072;-85
2021/09/02 12:08:09;;;;;;;26.35;11.48;;;;;;;;;;5046078;28;20059;-85
2021/09/02 12:10:36;;;;;;;33.72;12.20;;;;;;;;;;5045935;28;20018;-85
2021/09/02 12:13:32;;;;;;;23.15;10.18;;;;;;;;;;5044202;28;20021;-84
2021/09/02 12:16:12;;;;;;;20.40;9.90;;;;;;;;;;5043448;28;20032;-84
2021/09/02 12:18:42;;;;;;;31.75;11.15;;;;;;;;;;5044354;28;20026;-85
2021/09/02 12:21:18;;;;;;;34.70;11.40;;;;;;;;;;5045955;28;20084;-84
2021/09/02 12:23:52;;;;;;;25.15;10.13;;;;;;;;;;5045439;28;20494;-85
2021/09/02 12:26:20;;;;;;;22.20;9.27;;;;;;;;;;5046007;28;20025;-85
2021/09/02 12:28:50;;;;;;;26.00;11.60;;;;;;;;;;5028821;28;20399;-84
2021/09/02 12:31:20;;;;;;;23.52;10.00;;;;;;;;;;5027639;28;20097;-85
2021/09/02 12:34:01;;;;;;;23.85;10.50;;;;;;;;;;5026920;28;20159;-84
2021/09/02 12:36:28;;;;;;;20.98;9.05;;;;;;;;;;5044542;28;20021;-84
2021/09/02 12:38:53;;;;;;;21.38;9.63;;;;;;;;;;5045849;28;20029;-85
2021/09/02 12:41:24;;;;;;;23.20;9.82;;;;;;;;;;5045644;28;20036;-84
2021/09/02 12:44:06;;;;;;;25.38;10.20;;;;;;;;;;5046275;28;20029;-85
2021/09/02 12:46:48;;;;;;;19.70;8.95;;;;;;;;;;5046139;28;20025;-85
2021/09/02 12:49:13;;;;;;;20.15;9.43;;;;;;;;;;5045958;28;20052;-85
2021/09/02 12:51:39;;;;;;;19.20;9.77;;;;;;;;;;5045050;28;20021;-84
2021/09/02 12:54:04;;;;;;;19.77;9.57;;;;;;;;;;5044899;28;20029;-85
2021/09/02 12:56:37;;;;;;;24.80;9.95;;;;;;;;;;5045702;28;20029;-84
2021/09/02 12:59:06;;;;;;;24.45;9.35;;;;;;;;;;5044055;28;20088;-86
2021/09/02 13:01:31;;;;;;;19.83;8.60;;;;;;;;;;5043947;28;20546;-85
2021/09/02 13:04:01;;;;;;;22.73;9.15;;;;;;;;;;5045776;28;20033;-85
2021/09/02 13:06:30;;;;;;;20.52;9.18;;;;;;;;;;5048427;28;20080;-86
2021/09/02 13:09:00;;;;;;;28.73;9.52;;;;;;;;;;5043142;28;20447;-83
2021/09/02 13:11:26;;;;;;;21.67;9.57;;;;;;;;;;5028699;28;20026;-84
2021/09/02 13:13:52;;;;;;;19.60;9.73;;;;;;;;;;5024171;28;20026;-82
2021/09/02 13:16:18;;;;;;;19.45;8.18;;;;;;;;;;5021559;28;20518;-84
2021/09/02 13:18:43;;;;;;;24.60;10.35;;;;;;;;;;5041014;28;20069;-83
2021/09/02 13:21:09;;;;;;;31.05;10.93;;;;;;;;;;5025493;28;20021;-83
2021/09/02 13:23:34;;;;;;;26.55;9.57;;;;;;;;;;5021782;28;20068;-84
2021/09/02 13:26:00;;;;;;;21.38;8.65;;;;;;;;;;5039591;28;20396;-84
2021/09/02 13:28:25;;;;;;;20.40;9.23;;;;;;;;;;5037646;28;20557;-85
2021/09/02 13:30:50;;;;;;;28.00;10.05;;;;;;;;;;5037740;28;20040;-84
2021/09/02 13:33:16;;;;;;;21.40;9.15;;;;;;;;;;5020135;28;20021;-84
2021/09/02 13:35:41;;;;;;;20.90;8.85;;;;;;;;;;5020631;28;20311;-84
2021/09/02 13:38:06;;;;;;;23.98;9.38;;;;;;;;;;5038911;28;20029;-84
2021/09/02 13:40:32;;;;;;;22.50;9.43;;;;;;;;;;5020877;28;20021;-84
2021/09/02 13:42:57;;;;;;;23.98;9.57;;;;;;;;;;5049560;28;20039;-84
2021/09/02 13:45:23;;;;;;;26.80;10.10;;;;;;;;;;5038856;28;20544;-84
2021/09/02 13:47:48;;;;;;;20.42;8.52;;;;;;;;;;5021194;28;20388;-84
2021/09/02 13:50:14;;;;;;;25.23;9.15;;;;;;;;;;5038293;28;20071;-84
2021/09/02 13:52:40;;;;;;;22.30;10.15;;;;;;;;;;5020525;28;20036;-84
2021/09/02 13:55:09;;;;;;;22.90;9.45;;;;;;;;;;5038056;28;20085;-84
2021/09/02 13:57:34;;;;;;;20.58;9.15;;;;;;;;;;5038984;28;20488;-84
2021/09/02 14:00:00;;;;;;;17.35;8.43;;;;;;;;;;5039999;28;20033;-85
2021/09/02 14:02:26;;;;;;;22.67;9.68;;;;;;;;;;5038860;28;20022;-84
2021/09/02 14:04:51;;;;;;;25.05;9.38;;;;;;;;;;5038054;28;20029;-84
2021/09/02 14:07:17;;;;;;;15.20;8.77;;;;;;;;;;5039811;28;20028;-84
2021/09/02 14:09:42;;;;;;;15.88;8.13;;;;;;;;;;5038712;28;20021;-85
2021/09/02 14:12:08;;;;;;;28.30;10.75;;;;;;;;;;5041196;28;20067;-85
2021/09/02 14:14:33;;;;;;;20.73;9.23;;;;;;;;;;5038926;28;20120;-84
2021/09/02 14:16:58;;;;;;;22.33;9.98;;;;;;;;;;5039020;28;20187;-84
2021/09/02 14:19:24;;;;;;;21.67;8.80;;;;;;;;;;5038790;28;20037;-84